sensor_id;sensor_type;location;lat;lon;timestamp;P1;durP1;ratioP1;P2;durP2;ratioP2
58384;SDS011;44185;47.844;8.966;2022-11-02T00:00:55;6.55;;;3.00;;
58384;SDS011;44185;47.844;8.966;2022-11-02T00:03:22;5.05;;;2.80;;
58384;SDS011;44185;47.844;8.966;2022-11-02T00:05:48;4.28;;;3.60;;
58384;SDS011;44185;47.844;8.966;2022-11-02T00:08:14;6.25;;;2.88;;
58384;SDS011;44185;47.844;8.966;2022-11-02T00:10:39;5.57;;;3.10;;
58384;SDS011;44185;47.844;8.966;2022-11-02T00:13:04;6.97;;;2.65;;
58384;SDS011;44185;47.844;8.966;2022-11-02T00:15:32;4.30;;;2.80;;
58384;SDS011;44185;47.844;8.966;2022-11-02T00:18:00;4.05;;;2.70;;
58384;SDS011;44185;47.844;8.966;2022-11-02T00:20:27;5.10;;;2.92;;
58384;SDS011;44185;47.844;8.966;2022-11-02T00:22:54;4.63;;;3.00;;
58384;SDS011;44185;47.844;8.966;2022-11-02T00:25:21;4.82;;;2.70;;
58384;SDS011;44185;47.844;8.966;2022-11-02T00:27:48;6.07;;;2.60;;
58384;SDS011;44185;47.844;8.966;2022-11-02T00:30:14;5.70;;;3.05;;
58384;SDS011;44185;47.844;8.966;2022-11-02T00:32:41;4.60;;;2.90;;
58384;SDS011;44185;47.844;8.966;2022-11-02T00:35:06;4.78;;;3.00;;
58384;SDS011;44185;47.844;8.966;2022-11-02T00:37:33;3.78;;;2.58;;
58384;SDS011;44185;47.844;8.966;2022-11-02T00:39:58;4.95;;;2.83;;
58384;SDS011;44185;47.844;8.966;2022-11-02T00:42:24;8.63;;;2.88;;
58384;SDS011;44185;47.844;8.966;2022-11-02T00:44:49;3.60;;;2.45;;
58384;SDS011;44185;47.844;8.966;2022-11-02T00:47:15;3.47;;;2.65;;
58384;SDS011;44185;47.844;8.966;2022-11-02T00:49:41;3.73;;;2.73;;
58384;SDS011;44185;47.844;8.966;2022-11-02T00:52:07;5.43;;;2.67;;
58384;SDS011;44185;47.844;8.966;2022-11-02T00:54:33;4.60;;;2.88;;
58384;SDS011;44185;47.844;8.966;2022-11-02T00:56:59;5.00;;;2.30;;
58384;SDS011;44185;47.844;8.966;2022-11-02T00:59:24;3.67;;;2.60;;
58384;SDS011;44185;47.844;8.966;2022-11-02T01:01:49;5.35;;;2.90;;
58384;SDS011;44185;47.844;8.966;2022-11-02T01:04:15;6.90;;;3.38;;
58384;SDS011;44185;47.844;8.966;2022-11-02T01:06:42;7.78;;;3.75;;
58384;SDS011;44185;47.844;8.966;2022-11-02T01:09:09;6.65;;;3.38;;
58384;SDS011;44185;47.844;8.966;2022-11-02T01:11:34;6.93;;;3.40;;
58384;SDS011;44185;47.844;8.966;2022-11-02T01:14:00;5.72;;;3.00;;
58384;SDS011;44185;47.844;8.966;2022-11-02T01:16:25;5.57;;;3.15;;
58384;SDS011;44185;47.844;8.966;2022-11-02T01:18:51;8.10;;;3.30;;
58384;SDS011;44185;47.844;8.966;2022-11-02T01:21:17;5.25;;;3.03;;
58384;SDS011;44185;47.844;8.966;2022-11-02T01:23:43;4.57;;;2.80;;
58384;SDS011;44185;47.844;8.966;2022-11-02T01:26:09;6.43;;;3.17;;
58384;SDS011;44185;47.844;8.966;2022-11-02T01:28:35;5.57;;;2.80;;
58384;SDS011;44185;47.844;8.966;2022-11-02T01:31:01;5.82;;;3.33;;
58384;SDS011;44185;47.844;8.966;2022-11-02T01:33:26;5.18;;;2.90;;
58384;SDS011;44185;47.844;8.966;2022-11-02T01:35:52;5.10;;;2.65;;
58384;SDS011;44185;47.844;8.966;2022-11-02T01:38:18;7.80;;;3.00;;
58384;SDS011;44185;47.844;8.966;2022-11-02T01:40:46;4.68;;;2.72;;
58384;SDS011;44185;47.844;8.966;2022-11-02T01:43:18;5.70;;;2.80;;
58384;SDS011;44185;47.844;8.966;2022-11-02T01:45:45;5.55;;;3.08;;
58384;SDS011;44185;47.844;8.966;2022-11-02T01:48:11;4.45;;;3.03;;
58384;SDS011;44185;47.844;8.966;2022-11-02T01:50:37;3.13;;;2.40;;
58384;SDS011;44185;47.844;8.966;2022-11-02T01:53:03;4.28;;;2.72;;
58384;SDS011;44185;47.844;8.966;2022-11-02T01:55:30;6.32;;;3.28;;
58384;SDS011;44185;47.844;8.966;2022-11-02T01:58:00;6.00;;;2.80;;
58384;SDS011;44185;47.844;8.966;2022-11-02T02:00:28;5.07;;;2.97;;
58384;SDS011;44185;47.844;8.966;2022-11-02T02:02:54;5.00;;;3.05;;
58384;SDS011;44185;47.844;8.966;2022-11-02T02:05:25;5.90;;;3.10;;
58384;SDS011;44185;47.844;8.966;2022-11-02T02:07:51;6.38;;;3.15;;
58384;SDS011;44185;47.844;8.966;2022-11-02T02:10:19;7.18;;;3.28;;
58384;SDS011;44185;47.844;8.966;2022-11-02T02:12:45;7.25;;;3.00;;
58384;SDS011;44185;47.844;8.966;2022-11-02T02:15:12;6.75;;;3.10;;
58384;SDS011;44185;47.844;8.966;2022-11-02T02:17:40;5.18;;;3.38;;
58384;SDS011;44185;47.844;8.966;2022-11-02T02:20:15;7.28;;;3.00;;
58384;SDS011;44185;47.844;8.966;2022-11-02T02:23:06;3.25;;;2.75;;
58384;SDS011;44185;47.844;8.966;2022-11-02T02:26:02;4.78;;;2.72;;
58384;SDS011;44185;47.844;8.966;2022-11-02T02:28:45;5.20;;;2.80;;
58384;SDS011;44185;47.844;8.966;2022-11-02T02:31:18;4.53;;;2.70;;
58384;SDS011;44185;47.844;8.966;2022-11-02T02:33:51;6.50;;;2.80;;
58384;SDS011;44185;47.844;8.966;2022-11-02T02:36:23;4.32;;;2.72;;
58384;SDS011;44185;47.844;8.966;2022-11-02T02:38:56;3.50;;;2.60;;
58384;SDS011;44185;47.844;8.966;2022-11-02T02:41:28;3.90;;;2.97;;
58384;SDS011;44185;47.844;8.966;2022-11-02T02:44:02;3.85;;;2.65;;
58384;SDS011;44185;47.844;8.966;2022-11-02T02:46:31;5.53;;;3.30;;
58384;SDS011;44185;47.844;8.966;2022-11-02T02:49:01;5.93;;;3.22;;
58384;SDS011;44185;47.844;8.966;2022-11-02T02:51:29;5.55;;;3.20;;
58384;SDS011;44185;47.844;8.966;2022-11-02T02:53:57;3.75;;;3.10;;
58384;SDS011;44185;47.844;8.966;2022-11-02T02:56:26;8.03;;;3.17;;
58384;SDS011;44185;47.844;8.966;2022-11-02T02:58:55;6.47;;;3.20;;
58384;SDS011;44185;47.844;8.966;2022-11-02T03:01:24;7.13;;;3.30;;
58384;SDS011;44185;47.844;8.966;2022-11-02T03:03:51;4.38;;;2.72;;
58384;SDS011;44185;47.844;8.966;2022-11-02T03:06:17;7.00;;;3.63;;
58384;SDS011;44185;47.844;8.966;2022-11-02T03:08:47;6.63;;;3.55;;
58384;SDS011;44185;47.844;8.966;2022-11-02T03:11:21;6.15;;;3.30;;
58384;SDS011;44185;47.844;8.966;2022-11-02T03:13:51;5.60;;;3.20;;
58384;SDS011;44185;47.844;8.966;2022-11-02T03:16:34;6.55;;;2.80;;
58384;SDS011;44185;47.844;8.966;2022-11-02T03:19:09;5.78;;;2.95;;
58384;SDS011;44185;47.844;8.966;2022-11-02T03:21:41;5.32;;;2.90;;
58384;SDS011;44185;47.844;8.966;2022-11-02T03:24:11;7.75;;;3.03;;
58384;SDS011;44185;47.844;8.966;2022-11-02T03:26:42;4.30;;;2.90;;
58384;SDS011;44185;47.844;8.966;2022-11-02T03:29:15;5.35;;;2.60;;
58384;SDS011;44185;47.844;8.966;2022-11-02T03:31:48;6.53;;;2.97;;
58384;SDS011;44185;47.844;8.966;2022-11-02T03:34:21;6.45;;;3.03;;
58384;SDS011;44185;47.844;8.966;2022-11-02T03:39:19;5.65;;;2.40;;
58384;SDS011;44185;47.844;8.966;2022-11-02T03:41:54;4.55;;;2.55;;
58384;SDS011;44185;47.844;8.966;2022-11-02T03:44:23;5.75;;;2.80;;
58384;SDS011;44185;47.844;8.966;2022-11-02T03:46:54;3.88;;;2.72;;
58384;SDS011;44185;47.844;8.966;2022-11-02T03:49:22;8.13;;;2.85;;
58384;SDS011;44185;47.844;8.966;2022-11-02T03:51:49;4.07;;;2.67;;
58384;SDS011;44185;47.844;8.966;2022-11-02T03:54:16;6.68;;;3.05;;
58384;SDS011;44185;47.844;8.966;2022-11-02T03:56:50;6.07;;;2.63;;
58384;SDS011;44185;47.844;8.966;2022-11-02T03:59:20;6.47;;;3.03;;
58384;SDS011;44185;47.844;8.966;2022-11-02T04:01:46;5.30;;;2.80;;
58384;SDS011;44185;47.844;8.966;2022-11-02T04:04:15;7.38;;;3.13;;
58384;SDS011;44185;47.844;8.966;2022-11-02T04:06:41;7.07;;;3.05;;
58384;SDS011;44185;47.844;8.966;2022-11-02T04:09:08;5.75;;;3.00;;
58384;SDS011;44185;47.844;8.966;2022-11-02T04:11:34;3.75;;;2.65;;
58384;SDS011;44185;47.844;8.966;2022-11-02T04:14:00;5.03;;;2.67;;
58384;SDS011;44185;47.844;8.966;2022-11-02T04:16:26;6.57;;;3.05;;
58384;SDS011;44185;47.844;8.966;2022-11-02T04:18:51;5.25;;;3.10;;
58384;SDS011;44185;47.844;8.966;2022-11-02T04:21:18;4.07;;;2.67;;
58384;SDS011;44185;47.844;8.966;2022-11-02T04:23:43;5.15;;;2.90;;
58384;SDS011;44185;47.844;8.966;2022-11-02T04:26:09;7.95;;;3.35;;
58384;SDS011;44185;47.844;8.966;2022-11-02T04:28:34;5.97;;;3.25;;
58384;SDS011;44185;47.844;8.966;2022-11-02T04:30:59;6.10;;;3.10;;
58384;SDS011;44185;47.844;8.966;2022-11-02T04:33:25;8.55;;;3.70;;
58384;SDS011;44185;47.844;8.966;2022-11-02T04:35:51;7.30;;;3.25;;
58384;SDS011;44185;47.844;8.966;2022-11-02T04:38:17;7.47;;;3.55;;
58384;SDS011;44185;47.844;8.966;2022-11-02T04:40:43;9.20;;;4.03;;
58384;SDS011;44185;47.844;8.966;2022-11-02T04:43:09;8.90;;;3.80;;
58384;SDS011;44185;47.844;8.966;2022-11-02T04:45:34;9.82;;;3.92;;
58384;SDS011;44185;47.844;8.966;2022-11-02T04:48:00;7.95;;;3.20;;
58384;SDS011;44185;47.844;8.966;2022-11-02T04:50:26;4.97;;;3.17;;
58384;SDS011;44185;47.844;8.966;2022-11-02T04:52:55;4.70;;;2.97;;
58384;SDS011;44185;47.844;8.966;2022-11-02T04:55:22;5.22;;;3.30;;
58384;SDS011;44185;47.844;8.966;2022-11-02T04:57:48;3.90;;;2.65;;
58384;SDS011;44185;47.844;8.966;2022-11-02T05:00:14;6.75;;;3.00;;
58384;SDS011;44185;47.844;8.966;2022-11-02T05:02:40;4.60;;;2.80;;
58384;SDS011;44185;47.844;8.966;2022-11-02T05:05:06;9.45;;;3.03;;
58384;SDS011;44185;47.844;8.966;2022-11-02T05:07:32;5.05;;;2.95;;
58384;SDS011;44185;47.844;8.966;2022-11-02T05:09:57;5.57;;;3.20;;
58384;SDS011;44185;47.844;8.966;2022-11-02T05:12:24;6.43;;;3.58;;
58384;SDS011;44185;47.844;8.966;2022-11-02T05:14:49;6.07;;;3.33;;
58384;SDS011;44185;47.844;8.966;2022-11-02T05:17:15;6.95;;;3.53;;
58384;SDS011;44185;47.844;8.966;2022-11-02T05:19:40;9.57;;;3.53;;
58384;SDS011;44185;47.844;8.966;2022-11-02T05:22:06;4.90;;;2.92;;
58384;SDS011;44185;47.844;8.966;2022-11-02T05:24:31;4.53;;;2.92;;
58384;SDS011;44185;47.844;8.966;2022-11-02T05:26:57;7.35;;;3.25;;
58384;SDS011;44185;47.844;8.966;2022-11-02T05:29:24;7.43;;;3.80;;
58384;SDS011;44185;47.844;8.966;2022-11-02T05:31:49;6.50;;;3.78;;
58384;SDS011;44185;47.844;8.966;2022-11-02T05:34:15;7.10;;;3.50;;
58384;SDS011;44185;47.844;8.966;2022-11-02T05:36:40;11.20;;;4.82;;
58384;SDS011;44185;47.844;8.966;2022-11-02T05:39:06;10.13;;;4.38;;
58384;SDS011;44185;47.844;8.966;2022-11-02T05:41:31;9.23;;;4.05;;
58384;SDS011;44185;47.844;8.966;2022-11-02T05:43:57;8.55;;;3.47;;
58384;SDS011;44185;47.844;8.966;2022-11-02T05:46:23;10.15;;;3.38;;
58384;SDS011;44185;47.844;8.966;2022-11-02T05:48:49;5.60;;;3.40;;
58384;SDS011;44185;47.844;8.966;2022-11-02T05:51:14;6.40;;;3.45;;
58384;SDS011;44185;47.844;8.966;2022-11-02T05:53:40;6.68;;;3.55;;
58384;SDS011;44185;47.844;8.966;2022-11-02T05:56:05;7.15;;;3.03;;
58384;SDS011;44185;47.844;8.966;2022-11-02T05:58:33;9.50;;;3.92;;
58384;SDS011;44185;47.844;8.966;2022-11-02T06:00:59;6.82;;;3.45;;
58384;SDS011;44185;47.844;8.966;2022-11-02T06:03:27;9.35;;;4.22;;
58384;SDS011;44185;47.844;8.966;2022-11-02T06:05:54;8.93;;;3.55;;
58384;SDS011;44185;47.844;8.966;2022-11-02T06:08:20;7.45;;;4.20;;
58384;SDS011;44185;47.844;8.966;2022-11-02T06:10:45;6.93;;;3.88;;
58384;SDS011;44185;47.844;8.966;2022-11-02T06:13:11;12.13;;;4.10;;
58384;SDS011;44185;47.844;8.966;2022-11-02T06:15:36;5.90;;;3.35;;
58384;SDS011;44185;47.844;8.966;2022-11-02T06:18:02;9.25;;;4.07;;
58384;SDS011;44185;47.844;8.966;2022-11-02T06:20:29;8.95;;;3.88;;
58384;SDS011;44185;47.844;8.966;2022-11-02T06:22:54;9.82;;;4.50;;
58384;SDS011;44185;47.844;8.966;2022-11-02T06:25:20;5.80;;;3.05;;
58384;SDS011;44185;47.844;8.966;2022-11-02T06:27:49;7.55;;;3.75;;
58384;SDS011;44185;47.844;8.966;2022-11-02T06:32:44;8.63;;;3.85;;
58384;SDS011;44185;47.844;8.966;2022-11-02T06:35:10;7.65;;;3.60;;
58384;SDS011;44185;47.844;8.966;2022-11-02T06:37:37;8.07;;;3.55;;
58384;SDS011;44185;47.844;8.966;2022-11-02T06:40:03;9.70;;;4.18;;
58384;SDS011;44185;47.844;8.966;2022-11-02T06:42:29;8.95;;;3.45;;
58384;SDS011;44185;47.844;8.966;2022-11-02T06:44:55;10.50;;;4.18;;
58384;SDS011;44185;47.844;8.966;2022-11-02T06:47:20;6.45;;;3.25;;
58384;SDS011;44185;47.844;8.966;2022-11-02T06:49:46;8.80;;;4.13;;
58384;SDS011;44185;47.844;8.966;2022-11-02T06:52:11;8.50;;;3.73;;
58384;SDS011;44185;47.844;8.966;2022-11-02T06:54:38;6.43;;;3.75;;
58384;SDS011;44185;47.844;8.966;2022-11-02T06:57:04;11.07;;;5.55;;
58384;SDS011;44185;47.844;8.966;2022-11-02T06:59:29;11.65;;;5.30;;
58384;SDS011;44185;47.844;8.966;2022-11-02T07:01:55;12.32;;;4.55;;
58384;SDS011;44185;47.844;8.966;2022-11-02T07:04:20;14.98;;;4.75;;
58384;SDS011;44185;47.844;8.966;2022-11-02T07:06:45;10.73;;;4.65;;
58384;SDS011;44185;47.844;8.966;2022-11-02T07:09:11;10.63;;;4.93;;
58384;SDS011;44185;47.844;8.966;2022-11-02T07:11:38;11.27;;;4.63;;
58384;SDS011;44185;47.844;8.966;2022-11-02T07:14:03;7.88;;;4.03;;
58384;SDS011;44185;47.844;8.966;2022-11-02T07:16:29;9.27;;;4.07;;
58384;SDS011;44185;47.844;8.966;2022-11-02T07:18:54;9.35;;;4.05;;
58384;SDS011;44185;47.844;8.966;2022-11-02T07:21:19;5.93;;;3.58;;
58384;SDS011;44185;47.844;8.966;2022-11-02T07:23:45;7.72;;;4.18;;
58384;SDS011;44185;47.844;8.966;2022-11-02T07:26:10;7.05;;;4.38;;
58384;SDS011;44185;47.844;8.966;2022-11-02T07:28:37;6.13;;;3.95;;
58384;SDS011;44185;47.844;8.966;2022-11-02T07:31:03;8.32;;;3.72;;
58384;SDS011;44185;47.844;8.966;2022-11-02T07:33:29;5.90;;;3.67;;
58384;SDS011;44185;47.844;8.966;2022-11-02T07:35:54;5.60;;;3.35;;
58384;SDS011;44185;47.844;8.966;2022-11-02T07:38:20;5.82;;;3.40;;
58384;SDS011;44185;47.844;8.966;2022-11-02T07:40:46;7.70;;;3.72;;
58384;SDS011;44185;47.844;8.966;2022-11-02T07:43:13;7.68;;;3.88;;
58384;SDS011;44185;47.844;8.966;2022-11-02T07:45:39;10.82;;;4.10;;
58384;SDS011;44185;47.844;8.966;2022-11-02T07:48:05;8.70;;;4.78;;
58384;SDS011;44185;47.844;8.966;2022-11-02T07:50:30;8.60;;;4.15;;
58384;SDS011;44185;47.844;8.966;2022-11-02T07:52:56;8.77;;;4.47;;
58384;SDS011;44185;47.844;8.966;2022-11-02T07:55:23;9.90;;;4.00;;
58384;SDS011;44185;47.844;8.966;2022-11-02T07:57:53;10.32;;;4.68;;
58384;SDS011;44185;47.844;8.966;2022-11-02T08:00:19;9.45;;;4.20;;
58384;SDS011;44185;47.844;8.966;2022-11-02T08:02:46;9.07;;;4.70;;
58384;SDS011;44185;47.844;8.966;2022-11-02T08:05:12;11.40;;;4.38;;
58384;SDS011;44185;47.844;8.966;2022-11-02T08:07:37;8.80;;;4.53;;
58384;SDS011;44185;47.844;8.966;2022-11-02T08:10:03;10.45;;;4.10;;
58384;SDS011;44185;47.844;8.966;2022-11-02T08:12:29;8.68;;;4.50;;
58384;SDS011;44185;47.844;8.966;2022-11-02T08:14:55;9.43;;;4.93;;
58384;SDS011;44185;47.844;8.966;2022-11-02T08:17:20;8.05;;;4.35;;
58384;SDS011;44185;47.844;8.966;2022-11-02T08:19:47;9.10;;;5.00;;
58384;SDS011;44185;47.844;8.966;2022-11-02T08:22:13;11.52;;;5.10;;
58384;SDS011;44185;47.844;8.966;2022-11-02T08:24:38;10.75;;;5.70;;
58384;SDS011;44185;47.844;8.966;2022-11-02T08:27:03;14.52;;;4.70;;
58384;SDS011;44185;47.844;8.966;2022-11-02T08:29:29;10.38;;;4.88;;
58384;SDS011;44185;47.844;8.966;2022-11-02T08:31:54;11.10;;;3.88;;
58384;SDS011;44185;47.844;8.966;2022-11-02T08:34:20;8.23;;;3.75;;
58384;SDS011;44185;47.844;8.966;2022-11-02T08:36:46;10.75;;;3.70;;
58384;SDS011;44185;47.844;8.966;2022-11-02T08:39:12;9.48;;;3.47;;
58384;SDS011;44185;47.844;8.966;2022-11-02T08:41:37;9.10;;;3.80;;
58384;SDS011;44185;47.844;8.966;2022-11-02T08:44:03;13.63;;;3.75;;
58384;SDS011;44185;47.844;8.966;2022-11-02T08:46:29;9.30;;;3.80;;
58384;SDS011;44185;47.844;8.966;2022-11-02T08:48:54;10.87;;;3.97;;
58384;SDS011;44185;47.844;8.966;2022-11-02T08:51:20;13.23;;;3.60;;
58384;SDS011;44185;47.844;8.966;2022-11-02T08:53:46;7.78;;;3.17;;
58384;SDS011;44185;47.844;8.966;2022-11-02T08:56:12;12.57;;;3.65;;
58384;SDS011;44185;47.844;8.966;2022-11-02T08:58:37;7.55;;;3.30;;
58384;SDS011;44185;47.844;8.966;2022-11-02T09:01:03;6.40;;;3.10;;
58384;SDS011;44185;47.844;8.966;2022-11-02T09:03:29;7.95;;;2.92;;
58384;SDS011;44185;47.844;8.966;2022-11-02T09:05:57;6.82;;;2.83;;
58384;SDS011;44185;47.844;8.966;2022-11-02T09:08:24;5.45;;;2.83;;
58384;SDS011;44185;47.844;8.966;2022-11-02T09:10:51;6.68;;;2.70;;
58384;SDS011;44185;47.844;8.966;2022-11-02T09:13:18;6.03;;;2.75;;
58384;SDS011;44185;47.844;8.966;2022-11-02T09:15:48;8.10;;;2.80;;
58384;SDS011;44185;47.844;8.966;2022-11-02T09:18:14;6.27;;;2.90;;
58384;SDS011;44185;47.844;8.966;2022-11-02T09:20:39;8.73;;;2.80;;
58384;SDS011;44185;47.844;8.966;2022-11-02T09:23:05;5.65;;;2.67;;
58384;SDS011;44185;47.844;8.966;2022-11-02T09:25:30;8.48;;;2.92;;
58384;SDS011;44185;47.844;8.966;2022-11-02T09:27:57;4.60;;;2.60;;
58384;SDS011;44185;47.844;8.966;2022-11-02T09:30:23;8.88;;;2.95;;
58384;SDS011;44185;47.844;8.966;2022-11-02T09:32:52;9.97;;;3.00;;
58384;SDS011;44185;47.844;8.966;2022-11-02T09:35:18;6.05;;;2.55;;
58384;SDS011;44185;47.844;8.966;2022-11-02T09:37:44;8.18;;;3.20;;
58384;SDS011;44185;47.844;8.966;2022-11-02T09:40:09;6.97;;;2.72;;
58384;SDS011;44185;47.844;8.966;2022-11-02T09:42:38;7.70;;;3.22;;
58384;SDS011;44185;47.844;8.966;2022-11-02T09:45:12;9.82;;;2.70;;
58384;SDS011;44185;47.844;8.966;2022-11-02T09:47:41;8.55;;;3.05;;
58384;SDS011;44185;47.844;8.966;2022-11-02T09:52:39;7.63;;;2.75;;
58384;SDS011;44185;47.844;8.966;2022-11-02T09:55:09;3.65;;;2.40;;
58384;SDS011;44185;47.844;8.966;2022-11-02T09:57:39;3.05;;;2.17;;
58384;SDS011;44185;47.844;8.966;2022-11-02T10:00:13;2.95;;;1.88;;
58384;SDS011;44185;47.844;8.966;2022-11-02T10:02:42;5.50;;;2.37;;
58384;SDS011;44185;47.844;8.966;2022-11-02T10:05:23;4.63;;;1.98;;
58384;SDS011;44185;47.844;8.966;2022-11-02T10:07:58;8.38;;;2.45;;
58384;SDS011;44185;47.844;8.966;2022-11-02T10:10:33;8.02;;;2.63;;
58384;SDS011;44185;47.844;8.966;2022-11-02T10:13:04;4.03;;;1.77;;
58384;SDS011;44185;47.844;8.966;2022-11-02T10:15:44;5.07;;;1.52;;
58384;SDS011;44185;47.844;8.966;2022-11-02T10:18:12;6.32;;;2.10;;
58384;SDS011;44185;47.844;8.966;2022-11-02T10:20:43;6.65;;;2.10;;
58384;SDS011;44185;47.844;8.966;2022-11-02T10:23:11;6.53;;;2.00;;
58384;SDS011;44185;47.844;8.966;2022-11-02T10:25:48;3.45;;;1.90;;
58384;SDS011;44185;47.844;8.966;2022-11-02T10:28:14;9.23;;;2.40;;
58384;SDS011;44185;47.844;8.966;2022-11-02T10:30:45;5.90;;;2.40;;
58384;SDS011;44185;47.844;8.966;2022-11-02T10:33:11;5.57;;;2.03;;
58384;SDS011;44185;47.844;8.966;2022-11-02T10:35:42;3.72;;;2.13;;
58384;SDS011;44185;47.844;8.966;2022-11-02T10:38:19;3.42;;;1.50;;
58384;SDS011;44185;47.844;8.966;2022-11-02T10:40:58;4.18;;;1.55;;
58384;SDS011;44185;47.844;8.966;2022-11-02T10:43:41;6.50;;;1.92;;
58384;SDS011;44185;47.844;8.966;2022-11-02T10:46:20;5.47;;;1.95;;
58384;SDS011;44185;47.844;8.966;2022-11-02T10:48:55;4.18;;;1.70;;
58384;SDS011;44185;47.844;8.966;2022-11-02T10:51:27;2.38;;;1.60;;
58384;SDS011;44185;47.844;8.966;2022-11-02T10:53:54;5.18;;;2.00;;
58384;SDS011;44185;47.844;8.966;2022-11-02T10:56:21;5.18;;;2.10;;
58384;SDS011;44185;47.844;8.966;2022-11-02T10:58:53;7.13;;;1.88;;
58384;SDS011;44185;47.844;8.966;2022-11-02T11:01:25;3.60;;;2.03;;
58384;SDS011;44185;47.844;8.966;2022-11-02T11:03:52;4.72;;;1.83;;
58384;SDS011;44185;47.844;8.966;2022-11-02T11:06:20;6.00;;;1.83;;
58384;SDS011;44185;47.844;8.966;2022-11-02T11:08:47;6.63;;;2.15;;
58384;SDS011;44185;47.844;8.966;2022-11-02T11:11:14;5.10;;;2.28;;
58384;SDS011;44185;47.844;8.966;2022-11-02T11:13:44;8.98;;;3.10;;
58384;SDS011;44185;47.844;8.966;2022-11-02T11:16:17;11.48;;;2.85;;
58384;SDS011;44185;47.844;8.966;2022-11-02T11:18:44;11.18;;;3.00;;
58384;SDS011;44185;47.844;8.966;2022-11-02T11:21:14;11.55;;;2.72;;
58384;SDS011;44185;47.844;8.966;2022-11-02T11:23:40;7.53;;;2.45;;
58384;SDS011;44185;47.844;8.966;2022-11-02T11:26:05;7.45;;;2.42;;
58384;SDS011;44185;47.844;8.966;2022-11-02T11:28:52;9.02;;;2.53;;
58384;SDS011;44185;47.844;8.966;2022-11-02T11:31:18;10.47;;;2.83;;
58384;SDS011;44185;47.844;8.966;2022-11-02T11:33:49;6.07;;;2.20;;
58384;SDS011;44185;47.844;8.966;2022-11-02T11:36:21;7.60;;;2.50;;
58384;SDS011;44185;47.844;8.966;2022-11-02T11:38:49;7.50;;;2.00;;
58384;SDS011;44185;47.844;8.966;2022-11-02T11:41:16;7.80;;;2.60;;
58384;SDS011;44185;47.844;8.966;2022-11-02T11:43:42;3.25;;;1.90;;
58384;SDS011;44185;47.844;8.966;2022-11-02T11:46:10;6.32;;;2.40;;
58384;SDS011;44185;47.844;8.966;2022-11-02T11:48:38;4.88;;;2.10;;
58384;SDS011;44185;47.844;8.966;2022-11-02T11:51:17;8.20;;;2.03;;
58384;SDS011;44185;47.844;8.966;2022-11-02T11:56:43;5.93;;;1.83;;
58384;SDS011;44185;47.844;8.966;2022-11-02T11:59:16;6.53;;;2.33;;
58384;SDS011;44185;47.844;8.966;2022-11-02T12:01:44;7.28;;;2.00;;
58384;SDS011;44185;47.844;8.966;2022-11-02T12:04:09;4.18;;;1.80;;
58384;SDS011;44185;47.844;8.966;2022-11-02T12:06:37;4.90;;;1.80;;
58384;SDS011;44185;47.844;8.966;2022-11-02T12:09:11;5.75;;;1.67;;
58384;SDS011;44185;47.844;8.966;2022-11-02T12:11:49;3.15;;;1.27;;
58384;SDS011;44185;47.844;8.966;2022-11-02T12:14:36;10.38;;;1.98;;
58384;SDS011;44185;47.844;8.966;2022-11-02T12:17:16;5.70;;;1.65;;
58384;SDS011;44185;47.844;8.966;2022-11-02T12:20:01;7.93;;;1.90;;
58384;SDS011;44185;47.844;8.966;2022-11-02T12:22:40;7.13;;;2.08;;
58384;SDS011;44185;47.844;8.966;2022-11-02T12:25:19;4.73;;;1.63;;
58384;SDS011;44185;47.844;8.966;2022-11-02T12:27:52;3.30;;;1.60;;
58384;SDS011;44185;47.844;8.966;2022-11-02T12:30:24;6.78;;;2.13;;
58384;SDS011;44185;47.844;8.966;2022-11-02T12:33:04;6.75;;;1.92;;
58384;SDS011;44185;47.844;8.966;2022-11-02T12:38:38;2.75;;;0.68;;
58384;SDS011;44185;47.844;8.966;2022-11-02T12:41:16;7.65;;;1.83;;
58384;SDS011;44185;47.844;8.966;2022-11-02T12:43:48;6.40;;;1.52;;
58384;SDS011;44185;47.844;8.966;2022-11-02T12:46:21;7.00;;;1.88;;
58384;SDS011;44185;47.844;8.966;2022-11-02T12:48:56;7.35;;;1.70;;
58384;SDS011;44185;47.844;8.966;2022-11-02T12:51:31;8.75;;;2.13;;
58384;SDS011;44185;47.844;8.966;2022-11-02T12:54:05;3.10;;;1.33;;
58384;SDS011;44185;47.844;8.966;2022-11-02T12:56:37;8.27;;;1.85;;
58384;SDS011;44185;47.844;8.966;2022-11-02T12:59:09;6.03;;;1.90;;
58384;SDS011;44185;47.844;8.966;2022-11-02T13:01:40;7.32;;;1.70;;
58384;SDS011;44185;47.844;8.966;2022-11-02T13:04:08;5.43;;;1.73;;
58384;SDS011;44185;47.844;8.966;2022-11-02T13:06:40;5.70;;;1.80;;
58384;SDS011;44185;47.844;8.966;2022-11-02T13:09:10;7.17;;;1.80;;
58384;SDS011;44185;47.844;8.966;2022-11-02T13:11:41;4.05;;;1.75;;
58384;SDS011;44185;47.844;8.966;2022-11-02T13:14:10;5.32;;;1.80;;
58384;SDS011;44185;47.844;8.966;2022-11-02T13:16:39;7.47;;;1.58;;
58384;SDS011;44185;47.844;8.966;2022-11-02T13:19:11;5.88;;;1.70;;
58384;SDS011;44185;47.844;8.966;2022-11-02T13:21:43;8.02;;;1.40;;
58384;SDS011;44185;47.844;8.966;2022-11-02T13:24:16;6.43;;;1.50;;
58384;SDS011;44185;47.844;8.966;2022-11-02T13:26:46;4.00;;;1.30;;
58384;SDS011;44185;47.844;8.966;2022-11-02T13:29:14;5.68;;;1.90;;
58384;SDS011;44185;47.844;8.966;2022-11-02T13:31:45;6.65;;;1.63;;
58384;SDS011;44185;47.844;8.966;2022-11-02T13:34:17;3.88;;;1.33;;
58384;SDS011;44185;47.844;8.966;2022-11-02T13:36:46;6.53;;;1.48;;
58384;SDS011;44185;47.844;8.966;2022-11-02T13:39:14;2.58;;;1.27;;
58384;SDS011;44185;47.844;8.966;2022-11-02T13:48:02;4.03;;;1.45;;
58384;SDS011;44185;47.844;8.966;2022-11-02T13:50:41;3.58;;;1.42;;
58384;SDS011;44185;47.844;8.966;2022-11-02T13:53:11;6.30;;;1.48;;
58384;SDS011;44185;47.844;8.966;2022-11-02T13:55:44;2.63;;;1.35;;
58384;SDS011;44185;47.844;8.966;2022-11-02T13:58:18;8.60;;;1.73;;
58384;SDS011;44185;47.844;8.966;2022-11-02T14:00:47;7.85;;;1.88;;
58384;SDS011;44185;47.844;8.966;2022-11-02T14:03:14;3.28;;;0.93;;
58384;SDS011;44185;47.844;8.966;2022-11-02T14:05:44;4.97;;;1.58;;
58384;SDS011;44185;47.844;8.966;2022-11-02T14:08:18;4.03;;;1.60;;
58384;SDS011;44185;47.844;8.966;2022-11-02T14:11:01;7.00;;;1.70;;
58384;SDS011;44185;47.844;8.966;2022-11-02T14:17:08;6.43;;;1.75;;
58384;SDS011;44185;47.844;8.966;2022-11-02T14:19:47;5.15;;;1.20;;
58384;SDS011;44185;47.844;8.966;2022-11-02T14:22:15;4.78;;;1.30;;
58384;SDS011;44185;47.844;8.966;2022-11-02T14:27:40;7.63;;;1.55;;
58384;SDS011;44185;47.844;8.966;2022-11-02T14:33:07;4.35;;;1.80;;
58384;SDS011;44185;47.844;8.966;2022-11-02T14:35:54;5.25;;;1.10;;
58384;SDS011;44185;47.844;8.966;2022-11-02T14:38:32;2.47;;;1.38;;
58384;SDS011;44185;47.844;8.966;2022-11-02T14:47:35;7.43;;;1.58;;
58384;SDS011;44185;47.844;8.966;2022-11-02T14:50:05;6.15;;;1.73;;
58384;SDS011;44185;47.844;8.966;2022-11-02T14:52:39;4.47;;;1.63;;
58384;SDS011;44185;47.844;8.966;2022-11-02T14:55:07;5.10;;;1.60;;
58384;SDS011;44185;47.844;8.966;2022-11-02T14:57:49;8.30;;;1.60;;
58384;SDS011;44185;47.844;8.966;2022-11-02T15:00:19;5.97;;;1.35;;
58384;SDS011;44185;47.844;8.966;2022-11-02T15:02:47;5.10;;;1.80;;
58384;SDS011;44185;47.844;8.966;2022-11-02T15:05:25;4.78;;;1.33;;
58384;SDS011;44185;47.844;8.966;2022-11-02T15:07:53;5.32;;;1.67;;
58384;SDS011;44185;47.844;8.966;2022-11-02T15:10:34;4.35;;;1.20;;
58384;SDS011;44185;47.844;8.966;2022-11-02T15:16:15;6.93;;;1.80;;
58384;SDS011;44185;47.844;8.966;2022-11-02T15:18:49;4.53;;;1.30;;
58384;SDS011;44185;47.844;8.966;2022-11-02T15:21:21;4.88;;;1.55;;
58384;SDS011;44185;47.844;8.966;2022-11-02T15:24:12;5.68;;;1.67;;
58384;SDS011;44185;47.844;8.966;2022-11-02T15:26:44;7.97;;;1.63;;
58384;SDS011;44185;47.844;8.966;2022-11-02T15:29:14;6.57;;;1.88;;
58384;SDS011;44185;47.844;8.966;2022-11-02T15:31:45;10.52;;;1.85;;
58384;SDS011;44185;47.844;8.966;2022-11-02T15:34:18;5.35;;;1.73;;